Latest Weather Observations for Mount Crawford

IDS60801

Issued at 8:01 pm CST Monday 31 August 2015 (issued every 30 minutes, with the page automatically refreshed every 10 minutes)

About weather observations | Map of weather stations | Latest weather observations for SA | Other Formats
Station Details ID: 023878 Name: MT CRAWFORD AWS Lat: -34.73 Lon: 138.93 Height: 525.0 m
Data from the previous 72 hours. | See also: Recent months at Mount Crawford
Date/Time
CST
Temp
°C
App
Temp
°C
Dew
Point
Rel
Hum
%
Delta-T
°C
Wind Press
QNH
hPa
Press
MSL
hPa
Rain
since 9 am
mm
Dir
 
Spd
km/h
Gust
km/h
Spd
kts
Gust
kts
31/08:00pm 11.3 7.8 3.3 58 3.6 NE 11 13 6 7 1017.4 1017.6 0.0
31/07:30pm 10.7 6.8 3.3 60 3.3 ENE 13 17 7 9 1016.9 1017.2 0.0
31/07:00pm 11.0 7.5 3.5 60 3.4 NE 11 13 6 7 1017.1 1017.3 0.0
31/06:30pm 11.4 7.9 3.7 59 3.5 NE 11 13 6 7 1016.9 1017.2 0.0
31/06:00pm 12.1 9.0 3.6 56 3.9 NNE 9 11 5 6 1016.9 1017.2 0.0
31/05:30pm 12.9 9.8 3.8 54 4.2 NNW 9 15 5 8 1017.1 1017.3 0.0
31/05:00pm 13.3 9.9 3.9 53 4.4 N 11 15 6 8 1017.1 1017.3 0.0
31/04:30pm 13.9 10.4 3.7 50 4.8 NNW 11 19 6 10 1017.3 1017.5 0.0
31/04:00pm 14.8 11.3 3.6 47 5.3 NW 11 15 6 8 1017.3 1017.5 0.0
31/03:30pm 14.3 10.4 3.2 47 5.1 NW 13 20 7 11 1017.3 1017.5 0.0
31/03:00pm 14.6 10.9 4.6 51 4.8 WNW 13 19 7 10 1017.5 1017.7 0.0
31/02:30pm 14.9 11.5 5.7 54 4.5 WNW 13 22 7 12 1017.8 1018.1 0.0
31/02:00pm 14.4 10.5 5.2 54 4.5 W 15 24 8 13 1017.9 1018.2 0.0
31/01:30pm 13.9 9.6 3.1 48 5.0 WSW 15 22 8 12 1018.2 1018.5 0.0
31/01:00pm 13.8 9.9 5.2 56 4.1 NW 15 22 8 12 1018.7 1019.0 0.0
31/12:30pm 13.4 9.4 2.9 49 4.8 WNW 13 19 7 10 1019.0 1019.3 0.0
31/12:00pm 13.2 9.0 3.6 52 4.4 W 15 24 8 13 1019.4 1019.7 0.0
31/11:30am 13.3 9.8 3.4 51 4.6 WNW 11 19 6 10 1019.8 1020.1 0.0
31/11:00am 12.7 8.8 3.6 54 4.2 NW 13 19 7 10 1020.1 1020.4 0.0
31/10:30am 12.4 9.0 3.9 56 3.9 NW 11 15 6 8 1020.3 1020.6 0.0
31/10:00am 11.9 8.5 4.2 59 3.6 WNW 11 17 6 9 1020.4 1020.7 0.0
31/09:30am 11.4 8.4 4.2 61 3.3 NNE 9 17 5 9 1020.4 1020.7 0.0
31/09:00am 10.4 6.5 3.2 61 3.2 N 13 17 7 9 1020.4 1020.7 0.0
31/08:30am 9.6 5.5 2.0 59 3.3 N 13 17 7 9 1020.5 1020.8 0.0
31/08:00am 8.9 5.5 1.8 61 3.0 N 9 15 5 8 1020.3 1020.6 0.0
31/07:30am 8.3 4.4 1.2 61 3.0 N 11 13 6 7 1020.2 1020.5 0.0
31/07:00am 7.3 3.3 0.5 62 2.8 NNE 11 13 6 7 1019.9 1020.2 0.0
31/06:30am 7.0 3.0 0.2 62 2.7 NNE 11 13 6 7 1019.9 1020.2 0.0
31/06:00am 6.7 2.7 0.4 64 2.5 NNE 11 15 6 8 1019.9 1020.2 0.0
31/05:30am 6.2 1.9 0.7 68 2.2 NE 13 13 7 7 1020.0 1020.3 0.0
31/05:00am 5.9 1.2 0.9 70 2.0 NE 15 19 8 10 1020.0 1020.3 0.0
31/04:30am 5.8 0.7 1.0 71 1.9 NE 17 22 9 12 1020.0 1020.3 0.0
31/04:00am 5.9 0.8 0.9 70 2.0 NE 17 24 9 13 1020.0 1020.3 0.0
31/03:30am 5.9 0.9 1.2 72 1.9 NE 17 20 9 11 1020.2 1020.5 0.0
31/03:00am 5.7 1.1 1.4 74 1.8 NE 15 20 8 11 1020.4 1020.7 0.0
31/02:30am 5.4 0.5 1.7 77 1.5 ENE 17 19 9 10 1020.5 1020.8 0.0
31/02:00am 5.3 0.4 2.0 79 1.4 ENE 17 19 9 10 1020.8 1021.1 0.0
31/01:30am 5.2 0.7 2.2 81 1.2 ENE 15 17 8 9 1021.3 1021.6 0.0
31/01:00am 5.1 0.6 2.3 82 1.2 E 15 19 8 10 1021.7 1022.0 0.0
31/12:30am 5.1 0.3 2.5 83 1.1 E 17 22 9 12 1021.6 1021.9 0.0
31/12:00am 4.5 -0.7 2.4 86 0.9 E 19 24 10 13 1021.4 1021.7 0.0
 
Date/Time
CST
Temp
°C
App
Temp
°C
Dew
Point
Rel
Hum
%
Delta-T
°C
Wind Press
QNH
hPa
Press
MSL
hPa
Rain
since 9 am
mm
Dir
 
Spd
km/h
Gust
km/h
Spd
kts
Gust
kts
30/11:30pm 4.6 -1.2 2.3 85 1.0 ESE 22 26 12 14 1021.4 1021.7 0.0
30/11:00pm 4.7 -1.1 2.4 85 1.0 ESE 22 24 12 13 1021.8 1022.1 0.0
30/10:30pm 5.0 -0.2 2.5 84 1.0 ESE 19 22 10 12 1022.1 1022.4 0.0
30/10:00pm 6.5 1.3 2.2 74 1.8 ESE 19 20 10 11 1022.3 1022.6 0.0
30/09:30pm 6.8 2.0 2.5 74 1.8 ESE 17 22 9 12 1022.5 1022.9 0.0
30/09:00pm 7.6 3.4 3.6 76 1.8 ESE 15 17 8 9 1022.6 1023.0 0.0
30/08:30pm 7.1 2.8 3.3 77 1.7 SE 15 20 8 11 1022.6 1023.0 0.0
30/08:00pm 7.9 4.3 3.2 72 2.1 SSE 11 17 6 9 1022.5 1022.9 0.0
30/07:30pm 9.2 7.4 3.4 67 2.6 SW 2 6 1 3 1022.5 1022.9 0.0
30/07:00pm 9.1 6.4 3.5 68 2.5 WSW 7 7 4 4 1022.4 1022.7 0.0
30/06:30pm 9.7 7.1 3.0 63 3.0 N 6 7 3 4 1022.2 1022.5 0.0
30/06:00pm 9.9 7.1 3.0 62 3.1 NW 7 9 4 5 1022.3 1022.6 0.0
30/05:30pm 10.4 7.2 3.0 60 3.3 N 9 11 5 6 1022.0 1022.3 0.0
30/05:00pm 11.0 8.2 3.3 59 3.5 NNE 7 11 4 6 1021.8 1022.1 0.0
30/04:30pm 11.1 7.2 3.2 58 3.6 N 13 17 7 9 1021.7 1022.0 0.0
30/04:00pm 11.4 8.2 3.2 57 3.7 NNE 9 17 5 9 1021.9 1022.2 0.0
30/03:30pm 11.3 8.5 3.3 58 3.6 NNE 7 17 4 9 1022.0 1022.3 0.0
30/03:00pm 11.2 7.6 2.8 56 3.7 NNE 11 17 6 9 1022.2 1022.5 0.0
30/02:30pm 11.6 8.6 3.9 59 3.5 NNE 9 13 5 7 1022.5 1022.9 0.0
30/02:00pm 11.2 7.6 3.0 57 3.7 N 11 20 6 11 1022.7 1023.1 0.0
30/01:30pm 11.3 8.2 3.6 59 3.5 NNW 9 19 5 10 1023.0 1023.4 0.0
30/01:00pm 10.0 6.8 3.1 62 3.1 NE 9 13 5 7 1023.5 1023.8 0.0
30/12:30pm 10.5 6.7 3.8 63 3.0 NNE 13 19 7 10 1023.9 1024.2 0.0
30/12:00pm 9.7 5.8 3.2 64 2.9 NE 13 20 7 11 1024.3 1024.7 0.0
30/11:30am 10.0 5.5 4.4 68 2.6 NE 17 20 9 11 1024.4 1024.8 0.0
30/11:00am 9.2 4.3 4.0 70 2.4 NE 19 24 10 13 1024.7 1025.1 0.0
30/10:30am 8.2 3.1 4.0 75 1.9 NE 20 28 11 15 1024.9 1025.3 0.0
30/10:00am 7.9 2.9 3.4 73 2.0 NE 19 22 10 12 1025.2 1025.5 0.0
30/09:30am 7.2 2.2 3.6 78 1.6 ENE 19 26 10 14 1025.4 1025.7 0.0
30/09:00am 6.1 1.0 3.1 81 1.3 ENE 19 26 10 14 1025.5 1025.8 0.0
30/08:30am 5.4 1.2 3.6 88 0.8 ENE 15 20 8 11 1025.5 1025.8 0.0
30/08:00am 4.3 -0.8 3.0 91 0.5 ENE 19 26 10 14 1025.4 1025.7 0.0
30/07:30am 3.6 -1.1 2.9 95 0.3 E 17 22 9 12 1025.2 1025.5 0.0
30/07:00am 2.8 -2.4 2.7 99 0.0 E 19 26 10 14 1024.9 1025.3 0.0
30/06:30am 2.5 -2.9 2.4 99 0.0 E 20 26 11 14 1024.6 1025.0 0.0
30/06:00am 2.4 -3.1 2.1 98 0.1 E 20 24 11 13 1024.4 1024.8 0.0
30/05:30am 2.6 -2.8 2.2 97 0.2 E 20 26 11 14 1024.3 1024.7 0.0
30/05:00am 2.6 -2.9 2.0 96 0.2 E 20 26 11 14 1024.3 1024.7 0.0
30/04:30am 2.5 -3.0 1.8 95 0.3 E 20 26 11 14 1024.2 1024.6 0.0
30/04:00am 2.5 -3.1 1.5 93 0.4 E 20 26 11 14 1024.4 1024.8 0.0
30/03:30am 2.7 -2.9 1.4 91 0.5 E 20 24 11 13 1024.7 1025.1 0.0
30/03:00am 2.9 -2.7 1.1 88 0.7 E 20 24 11 13 1024.9 1025.3 0.0
30/02:30am 3.0 -2.6 1.1 87 0.7 E 20 24 11 13 1025.0 1025.4 0.0
30/02:00am 3.2 -2.8 0.9 85 0.9 ESE 22 28 12 15 1025.4 1025.7 0.0
30/01:30am 3.2 -2.8 0.8 84 0.9 ESE 22 28 12 15 1025.6 1025.9 0.0
30/01:00am 3.5 -2.9 0.7 82 1.1 ESE 24 28 13 15 1026.0 1026.4 0.0
30/12:30am 3.7 -2.7 0.9 82 1.1 ESE 24 28 13 15 1025.9 1026.3 0.0
30/12:00am 3.7 -2.6 1.3 84 1.0 ESE 24 30 13 16 1025.8 1026.2 0.0
 
Date/Time
CST
Temp
°C
App
Temp
°C
Dew
Point
Rel
Hum
%
Delta-T
°C
Wind Press
QNH
hPa
Press
MSL
hPa
Rain
since 9 am
mm
Dir
 
Spd
km/h
Gust
km/h
Spd
kts
Gust
kts
29/11:30pm 3.8 -2.5 1.4 84 1.0 ESE 24 30 13 16 1025.9 1026.3 0.0
29/11:00pm 3.9 -2.0 1.8 86 0.9 ESE 22 28 12 15 1026.2 1026.6 0.0
29/10:30pm 4.2 -1.6 2.2 87 0.8 SE 22 28 12 15 1026.3 1026.7 0.0
29/10:00pm 4.4 -1.4 2.4 87 0.8 SE 22 28 12 15 1026.3 1026.7 0.0
29/09:30pm 4.3 -1.0 3.0 91 0.5 SE 20 28 11 15 1026.4 1026.8 0.0
29/09:00pm 4.6 -1.0 3.4 92 0.5 SE 22 32 12 17 1026.3 1026.7 0.0
29/08:30pm 4.9 -0.2 4.0 94 0.4 SE 20 28 11 15 1026.1 1026.5 0.0
29/08:00pm 5.2 0.1 4.2 93 0.4 ESE 20 24 11 13 1025.9 1026.3 0.0
29/07:30pm 5.5 0.6 4.3 92 0.5 ESE 19 24 10 13 1025.9 1026.3 0.0
29/07:00pm 6.2 1.4 4.4 88 0.8 ESE 19 24 10 13 1025.9 1026.3 0.0
29/06:30pm 6.5 2.5 4.7 88 0.8 ESE 15 19 8 10 1025.8 1026.2 0.0
29/06:00pm 6.6 2.5 4.6 87 0.9 ESE 15 19 8 10 1025.5 1025.8 0.0
29/05:30pm 6.9 2.8 4.4 84 1.1 ESE 15 20 8 11 1025.2 1025.5 0.0
29/05:00pm 7.4 2.4 3.6 77 1.7 SE 19 24 10 13 1025.0 1025.4 0.0
29/04:30pm 7.8 3.2 3.7 75 1.8 ESE 17 22 9 12 1025.0 1025.4 0.0
29/04:00pm 7.8 3.3 4.4 79 1.5 ESE 17 20 9 11 1024.9 1025.3 0.0
29/03:30pm 8.1 3.7 5.0 81 1.4 ESE 17 22 9 12 1025.0 1025.4 0.0
29/03:00pm 8.4 3.7 5.0 79 1.6 ESE 19 24 10 13 1025.4 1025.7 0.0
29/02:30pm 8.8 4.2 5.5 80 1.5 ESE 19 26 10 14 1025.5 1025.8 0.0
29/02:00pm 8.8 5.2 3.2 68 2.5 S 11 15 6 8 1025.5 1025.8 0.0
29/01:30pm 8.1 4.4 4.3 77 1.7 SE 13 19 7 10 1025.7 1026.0 0.0
29/01:00pm 7.7 4.7 5.8 88 0.9 ESE 11 19 6 10 1026.1 1026.5 0.0
29/12:30pm 8.0 4.0 5.1 82 1.3 SE 15 22 8 12 1026.5 1026.9 0.0
29/12:00pm 8.5 4.5 6.8 89 0.8 ESE 17 22 9 12 1026.9 1027.3 0.0
29/11:30am 7.3 3.2 6.1 92 0.6 ESE 17 22 9 12 1027.4 1027.8 0.0
29/11:00am 7.7 3.4 7.0 95 0.3 ESE 19 28 10 15 1027.3 1027.6 0.0
29/10:30am 6.9 2.9 6.8 99 0.0 ESE 17 24 9 13 1027.4 1027.8 0.0
29/10:00am 7.1 3.2 7.0 99 0.0 ESE 17 26 9 14 1027.4 1027.8 0.0
29/09:30am 6.7 3.1 6.6 99 0.0 SE 15 22 8 12 1027.4 1027.8 0.0
29/09:00am 6.7 3.1 6.6 99 0.0 SE 15 20 8 11 1027.3 1027.6 0.2
29/08:30am 6.6 3.3 6.6 100 0.0 ESE 13 22 7 12 1027.0 1027.4 0.2
29/08:00am 6.0 2.2 5.9 99 0.0 SE 15 19 8 10 1026.9 1027.3 0.2
29/07:30am 5.7 1.9 5.6 99 0.0 SSE 15 17 8 9 1026.5 1026.9 0.2
29/07:00am 5.6 2.1 5.5 99 0.0 SSE 13 17 7 9 1026.3 1026.7 0.2
29/06:30am 6.2 2.8 6.1 99 0.0 SSE 13 17 7 9 1026.0 1026.4 0.2
29/06:00am 5.9 2.9 5.9 100 0.0 SE 11 15 6 8 1025.9 1026.3 0.2
29/05:30am 5.9 2.5 5.9 100 0.0 SE 13 15 7 8 1025.8 1026.2 0.2
29/05:00am 5.5 2.0 5.5 100 0.0 SE 13 17 7 9 1025.8 1026.2 0.2
29/04:30am 4.6 0.9 4.6 100 0.0 SE 13 19 7 10 1025.8 1026.2 0.2
29/04:00am 5.2 1.6 5.2 100 0.0 SSE 13 17 7 9 1025.9 1026.3 0.2
29/03:30am 5.3 1.8 5.3 100 0.0 SSE 13 15 7 8 1026.0 1026.4 0.2
29/03:00am 5.4 1.9 5.4 100 0.0 SSE 13 17 7 9 1026.2 1026.6 0.2
29/02:30am 5.7 2.6 5.6 99 0.0 SSE 11 13 6 7 1026.5 1026.9 0.2
29/02:00am 5.1 1.5 5.0 99 0.0 SE 13 15 7 8 1026.7 1027.1 0.2
29/01:30am 5.6 1.7 5.5 99 0.0 SSE 15 19 8 10 1026.9 1027.3 0.2
29/01:00am 5.4 1.1 5.3 99 0.0 SSE 17 22 9 12 1027.1 1027.5 0.2
29/12:30am 5.6 1.4 5.5 99 0.0 SSE 17 19 9 10 1026.9 1027.3 0.2
29/12:00am 5.7 1.3 5.0 95 0.3 SSE 17 22 9 12 1026.8 1027.2 0.2
 
Date/Time
CST
Temp
°C
App
Temp
°C
Dew
Point
Rel
Hum
%
Delta-T
°C
Wind Press
QNH
hPa
Press
MSL
hPa
Rain
since 9 am
mm
Dir
 
Spd
km/h
Gust
km/h
Spd
kts
Gust
kts
28/11:30pm 5.8 1.3 4.4 91 0.6 SSE 17 19 9 10 1027.0 1027.4 0.2
28/11:00pm 5.9 1.2 3.1 82 1.2 SSE 17 20 9 11 1027.1 1027.5 0.2
28/10:30pm 6.0 1.6 2.5 78 1.5 SE 15 17 8 9 1027.4 1027.8 0.2
28/10:00pm 6.3 1.5 2.6 77 1.6 SSE 17 20 9 11 1027.5 1027.9 0.2
28/09:30pm 5.9 0.6 3.1 82 1.2 SE 20 24 11 13 1027.4 1027.8 0.2
28/09:00pm 5.8 0.2 3.5 85 1.0 SSE 22 26 12 14 1027.1 1027.5 0.2
28/08:30pm 5.7 0.2 3.9 88 0.8 SSE 22 28 12 15 1026.9 1027.3 0.2

Other Formats:

Comma delimited format used in spreadsheet applications
http://www.bom.gov.au/fwo/IDS60801/IDS60801.94678.axf

JavaScript Object Notation format (JSON) in row-major order
http://www.bom.gov.au/fwo/IDS60801/IDS60801.94678.json